sensor_id;sensor_type;location;lat;lon;timestamp;temperature;humidity
23289;DHT22;11813;50.834;4.280;2022-09-03T00:00:51;21.30;99.90
23289;DHT22;11813;50.834;4.280;2022-09-03T00:03:41;21.30;99.90
23289;DHT22;11813;50.834;4.280;2022-09-03T00:14:39;21.20;99.90
23289;DHT22;11813;50.834;4.280;2022-09-03T00:20:27;21.30;99.90
23289;DHT22;11813;50.834;4.280;2022-09-03T00:22:57;21.20;99.90
23289;DHT22;11813;50.834;4.280;2022-09-03T00:28:17;21.30;99.90
23289;DHT22;11813;50.834;4.280;2022-09-03T00:30:45;21.30;99.90
23289;DHT22;11813;50.834;4.280;2022-09-03T00:33:22;21.30;99.90
23289;DHT22;11813;50.834;4.280;2022-09-03T00:36:01;21.20;99.90
23289;DHT22;11813;50.834;4.280;2022-09-03T00:38:30;21.20;99.90
23289;DHT22;11813;50.834;4.280;2022-09-03T00:46:28;21.10;99.90
23289;DHT22;11813;50.834;4.280;2022-09-03T00:49:31;21.10;99.90
23289;DHT22;11813;50.834;4.280;2022-09-03T00:55:00;21.10;99.90
23289;DHT22;11813;50.834;4.280;2022-09-03T01:00:17;21.10;99.90
23289;DHT22;11813;50.834;4.280;2022-09-03T01:14:24;21.20;99.90
23289;DHT22;11813;50.834;4.280;2022-09-03T01:17:19;21.30;99.90
23289;DHT22;11813;50.834;4.280;2022-09-03T01:25:13;21.20;99.90
23289;DHT22;11813;50.834;4.280;2022-09-03T01:30:33;21.20;99.90
23289;DHT22;11813;50.834;4.280;2022-09-03T01:33:18;21.30;99.90
23289;DHT22;11813;50.834;4.280;2022-09-03T01:36:00;21.20;99.90
23289;DHT22;11813;50.834;4.280;2022-09-03T01:41:29;21.20;99.90
23289;DHT22;11813;50.834;4.280;2022-09-03T01:44:34;21.20;99.90
23289;DHT22;11813;50.834;4.280;2022-09-03T01:47:27;21.20;99.90
23289;DHT22;11813;50.834;4.280;2022-09-03T01:50:10;21.20;99.90
23289;DHT22;11813;50.834;4.280;2022-09-03T01:58:29;21.10;99.90
23289;DHT22;11813;50.834;4.280;2022-09-03T02:01:00;21.10;99.90
23289;DHT22;11813;50.834;4.280;2022-09-03T02:03:37;21.10;99.90
23289;DHT22;11813;50.834;4.280;2022-09-03T02:06:03;21.10;99.90
23289;DHT22;11813;50.834;4.280;2022-09-03T02:08:30;21.10;99.90
23289;DHT22;11813;50.834;4.280;2022-09-03T02:10:57;21.10;99.90
23289;DHT22;11813;50.834;4.280;2022-09-03T02:13:46;21.00;99.90
23289;DHT22;11813;50.834;4.280;2022-09-03T02:16:16;20.80;99.90
23289;DHT22;11813;50.834;4.280;2022-09-03T02:18:51;20.70;99.90
23289;DHT22;11813;50.834;4.280;2022-09-03T02:21:20;20.60;99.90
23289;DHT22;11813;50.834;4.280;2022-09-03T02:23:47;20.60;99.90
23289;DHT22;11813;50.834;4.280;2022-09-03T02:26:15;20.60;99.90
23289;DHT22;11813;50.834;4.280;2022-09-03T02:28:42;20.60;99.90
23289;DHT22;11813;50.834;4.280;2022-09-03T02:31:09;20.60;99.90
23289;DHT22;11813;50.834;4.280;2022-09-03T02:33:39;20.60;99.90
23289;DHT22;11813;50.834;4.280;2022-09-03T02:36:08;20.60;99.90
23289;DHT22;11813;50.834;4.280;2022-09-03T02:38:35;20.60;99.90
23289;DHT22;11813;50.834;4.280;2022-09-03T02:41:00;20.60;99.90
23289;DHT22;11813;50.834;4.280;2022-09-03T02:43:40;20.60;99.90
23289;DHT22;11813;50.834;4.280;2022-09-03T02:46:09;20.70;99.90
23289;DHT22;11813;50.834;4.280;2022-09-03T02:48:37;20.70;99.90
23289;DHT22;11813;50.834;4.280;2022-09-03T02:51:02;20.70;99.90
23289;DHT22;11813;50.834;4.280;2022-09-03T02:53:28;20.80;99.90
23289;DHT22;11813;50.834;4.280;2022-09-03T02:56:00;20.80;99.90
23289;DHT22;11813;50.834;4.280;2022-09-03T02:58:27;20.80;99.90
23289;DHT22;11813;50.834;4.280;2022-09-03T03:00:53;20.80;99.90
23289;DHT22;11813;50.834;4.280;2022-09-03T03:03:19;20.70;99.90
23289;DHT22;11813;50.834;4.280;2022-09-03T03:05:50;20.80;99.90
23289;DHT22;11813;50.834;4.280;2022-09-03T03:08:17;20.60;99.90
23289;DHT22;11813;50.834;4.280;2022-09-03T03:10:46;20.60;99.90
23289;DHT22;11813;50.834;4.280;2022-09-03T03:13:14;20.50;99.90
23289;DHT22;11813;50.834;4.280;2022-09-03T03:15:40;20.40;99.90
23289;DHT22;11813;50.834;4.280;2022-09-03T03:18:06;20.50;99.90
23289;DHT22;11813;50.834;4.280;2022-09-03T03:20:32;20.50;99.90
23289;DHT22;11813;50.834;4.280;2022-09-03T03:23:00;20.60;99.90
23289;DHT22;11813;50.834;4.280;2022-09-03T03:25:26;20.60;99.90
23289;DHT22;11813;50.834;4.280;2022-09-03T03:27:54;20.70;99.90
23289;DHT22;11813;50.834;4.280;2022-09-03T03:30:21;20.70;99.90
23289;DHT22;11813;50.834;4.280;2022-09-03T03:32:47;20.70;99.90
23289;DHT22;11813;50.834;4.280;2022-09-03T03:35:13;20.70;99.90
23289;DHT22;11813;50.834;4.280;2022-09-03T03:37:38;20.70;99.90
23289;DHT22;11813;50.834;4.280;2022-09-03T03:40:04;20.80;99.90
23289;DHT22;11813;50.834;4.280;2022-09-03T03:42:32;20.80;99.90
23289;DHT22;11813;50.834;4.280;2022-09-03T03:44:58;20.80;99.90
23289;DHT22;11813;50.834;4.280;2022-09-03T03:47:30;20.80;99.90
23289;DHT22;11813;50.834;4.280;2022-09-03T03:49:59;20.70;99.90
23289;DHT22;11813;50.834;4.280;2022-09-03T03:52:25;20.70;99.90
23289;DHT22;11813;50.834;4.280;2022-09-03T03:54:51;20.60;99.90
23289;DHT22;11813;50.834;4.280;2022-09-03T03:57:19;20.60;99.90
23289;DHT22;11813;50.834;4.280;2022-09-03T03:59:45;20.60;99.90
23289;DHT22;11813;50.834;4.280;2022-09-03T04:02:12;20.70;99.90
23289;DHT22;11813;50.834;4.280;2022-09-03T04:04:38;20.60;99.90
23289;DHT22;11813;50.834;4.280;2022-09-03T04:07:04;20.70;99.90
23289;DHT22;11813;50.834;4.280;2022-09-03T04:09:29;20.70;99.90
23289;DHT22;11813;50.834;4.280;2022-09-03T04:11:55;20.60;99.90
23289;DHT22;11813;50.834;4.280;2022-09-03T04:14:24;20.60;99.90
23289;DHT22;11813;50.834;4.280;2022-09-03T04:16:50;20.70;99.90
23289;DHT22;11813;50.834;4.280;2022-09-03T04:19:16;20.60;99.90
23289;DHT22;11813;50.834;4.280;2022-09-03T04:21:42;20.70;99.90
23289;DHT22;11813;50.834;4.280;2022-09-03T04:24:08;20.60;99.90
23289;DHT22;11813;50.834;4.280;2022-09-03T04:26:34;20.60;99.90
23289;DHT22;11813;50.834;4.280;2022-09-03T04:29:03;20.70;99.90
23289;DHT22;11813;50.834;4.280;2022-09-03T04:31:29;20.70;99.90
23289;DHT22;11813;50.834;4.280;2022-09-03T04:33:55;20.70;99.90
23289;DHT22;11813;50.834;4.280;2022-09-03T04:36:23;20.70;99.90
23289;DHT22;11813;50.834;4.280;2022-09-03T04:38:51;20.70;99.90
23289;DHT22;11813;50.834;4.280;2022-09-03T04:41:24;20.60;99.90
23289;DHT22;11813;50.834;4.280;2022-09-03T04:43:51;20.60;99.90
23289;DHT22;11813;50.834;4.280;2022-09-03T04:46:18;20.70;99.90
23289;DHT22;11813;50.834;4.280;2022-09-03T04:48:48;20.70;99.90
23289;DHT22;11813;50.834;4.280;2022-09-03T04:51:20;20.70;99.90
23289;DHT22;11813;50.834;4.280;2022-09-03T04:53:47;20.70;99.90
23289;DHT22;11813;50.834;4.280;2022-09-03T04:56:19;20.70;99.90
23289;DHT22;11813;50.834;4.280;2022-09-03T04:58:46;20.60;99.90
23289;DHT22;11813;50.834;4.280;2022-09-03T05:01:16;20.60;99.90
23289;DHT22;11813;50.834;4.280;2022-09-03T05:03:43;20.60;99.90
23289;DHT22;11813;50.834;4.280;2022-09-03T05:06:08;20.60;99.90
23289;DHT22;11813;50.834;4.280;2022-09-03T05:08:35;20.60;99.90
23289;DHT22;11813;50.834;4.280;2022-09-03T05:11:01;20.50;99.90
23289;DHT22;11813;50.834;4.280;2022-09-03T05:13:27;20.60;99.90
23289;DHT22;11813;50.834;4.280;2022-09-03T05:16:01;20.60;99.90
23289;DHT22;11813;50.834;4.280;2022-09-03T05:18:27;20.50;99.90
23289;DHT22;11813;50.834;4.280;2022-09-03T05:21:01;20.50;99.90
23289;DHT22;11813;50.834;4.280;2022-09-03T05:23:27;20.50;99.90
23289;DHT22;11813;50.834;4.280;2022-09-03T05:25:56;20.60;99.90
23289;DHT22;11813;50.834;4.280;2022-09-03T05:28:23;20.60;99.90
23289;DHT22;11813;50.834;4.280;2022-09-03T05:33:32;20.60;99.90
23289;DHT22;11813;50.834;4.280;2022-09-03T05:36:05;20.60;99.90
23289;DHT22;11813;50.834;4.280;2022-09-03T05:38:31;20.60;99.90
23289;DHT22;11813;50.834;4.280;2022-09-03T05:41:01;20.60;99.90
23289;DHT22;11813;50.834;4.280;2022-09-03T05:43:28;20.60;99.90
23289;DHT22;11813;50.834;4.280;2022-09-03T05:45:58;20.60;99.90
23289;DHT22;11813;50.834;4.280;2022-09-03T05:48:28;20.60;99.90
23289;DHT22;11813;50.834;4.280;2022-09-03T05:53:33;20.50;99.90
23289;DHT22;11813;50.834;4.280;2022-09-03T05:56:00;20.50;99.90
23289;DHT22;11813;50.834;4.280;2022-09-03T05:58:31;20.40;99.90
23289;DHT22;11813;50.834;4.280;2022-09-03T06:00:57;20.40;99.90
23289;DHT22;11813;50.834;4.280;2022-09-03T06:03:23;20.40;99.90
23289;DHT22;11813;50.834;4.280;2022-09-03T06:05:53;20.40;99.90
23289;DHT22;11813;50.834;4.280;2022-09-03T06:08:19;20.50;99.90
23289;DHT22;11813;50.834;4.280;2022-09-03T06:10:45;20.60;99.90
23289;DHT22;11813;50.834;4.280;2022-09-03T06:13:11;20.70;99.90
23289;DHT22;11813;50.834;4.280;2022-09-03T06:15:37;20.70;99.90
23289;DHT22;11813;50.834;4.280;2022-09-03T06:18:03;20.70;99.90
23289;DHT22;11813;50.834;4.280;2022-09-03T06:20:29;20.70;99.90
23289;DHT22;11813;50.834;4.280;2022-09-03T06:22:56;20.70;99.90
23289;DHT22;11813;50.834;4.280;2022-09-03T06:25:22;20.70;99.90
23289;DHT22;11813;50.834;4.280;2022-09-03T06:27:48;20.80;99.90
23289;DHT22;11813;50.834;4.280;2022-09-03T06:30:14;20.90;99.90
23289;DHT22;11813;50.834;4.280;2022-09-03T06:32:47;20.90;99.90
23289;DHT22;11813;50.834;4.280;2022-09-03T06:35:14;20.90;99.90
23289;DHT22;11813;50.834;4.280;2022-09-03T06:37:41;20.90;99.90
23289;DHT22;11813;50.834;4.280;2022-09-03T06:40:07;20.90;99.90
23289;DHT22;11813;50.834;4.280;2022-09-03T06:42:37;21.00;99.90
23289;DHT22;11813;50.834;4.280;2022-09-03T06:45:03;21.00;99.90
23289;DHT22;11813;50.834;4.280;2022-09-03T06:47:31;21.00;99.90
23289;DHT22;11813;50.834;4.280;2022-09-03T06:49:58;21.00;99.90
23289;DHT22;11813;50.834;4.280;2022-09-03T06:52:25;21.10;99.90
23289;DHT22;11813;50.834;4.280;2022-09-03T06:54:50;21.00;99.90
23289;DHT22;11813;50.834;4.280;2022-09-03T06:57:16;21.00;99.90
23289;DHT22;11813;50.834;4.280;2022-09-03T06:59:41;21.10;99.90
23289;DHT22;11813;50.834;4.280;2022-09-03T07:02:08;21.00;99.90
23289;DHT22;11813;50.834;4.280;2022-09-03T07:04:34;21.10;99.90
23289;DHT22;11813;50.834;4.280;2022-09-03T07:07:00;21.20;99.90
23289;DHT22;11813;50.834;4.280;2022-09-03T07:09:25;21.20;99.90
23289;DHT22;11813;50.834;4.280;2022-09-03T07:11:51;21.30;99.90
23289;DHT22;11813;50.834;4.280;2022-09-03T07:14:18;21.40;99.90
23289;DHT22;11813;50.834;4.280;2022-09-03T07:16:44;21.40;99.90
23289;DHT22;11813;50.834;4.280;2022-09-03T07:19:11;21.40;99.90
23289;DHT22;11813;50.834;4.280;2022-09-03T07:21:38;21.40;99.90
23289;DHT22;11813;50.834;4.280;2022-09-03T07:24:06;21.40;99.90
23289;DHT22;11813;50.834;4.280;2022-09-03T07:26:34;21.50;99.90
23289;DHT22;11813;50.834;4.280;2022-09-03T07:29:00;21.60;99.90
23289;DHT22;11813;50.834;4.280;2022-09-03T07:31:31;21.60;99.90
23289;DHT22;11813;50.834;4.280;2022-09-03T07:34:03;21.60;99.90
23289;DHT22;11813;50.834;4.280;2022-09-03T07:36:34;21.60;99.90
23289;DHT22;11813;50.834;4.280;2022-09-03T07:39:00;21.60;99.90
23289;DHT22;11813;50.834;4.280;2022-09-03T07:41:26;21.60;99.90
23289;DHT22;11813;50.834;4.280;2022-09-03T07:43:52;21.70;99.90
23289;DHT22;11813;50.834;4.280;2022-09-03T07:46:23;21.70;99.90
23289;DHT22;11813;50.834;4.280;2022-09-03T07:48:50;21.70;99.90
23289;DHT22;11813;50.834;4.280;2022-09-03T07:51:17;21.70;99.90
23289;DHT22;11813;50.834;4.280;2022-09-03T07:53:47;21.80;99.90
23289;DHT22;11813;50.834;4.280;2022-09-03T07:56:13;21.90;99.90
23289;DHT22;11813;50.834;4.280;2022-09-03T07:58:40;21.90;99.90
23289;DHT22;11813;50.834;4.280;2022-09-03T08:01:11;22.00;99.90
23289;DHT22;11813;50.834;4.280;2022-09-03T08:03:38;22.10;99.90
23289;DHT22;11813;50.834;4.280;2022-09-03T08:06:07;22.10;99.90
23289;DHT22;11813;50.834;4.280;2022-09-03T08:08:34;22.20;99.90
23289;DHT22;11813;50.834;4.280;2022-09-03T08:11:04;22.30;99.90
23289;DHT22;11813;50.834;4.280;2022-09-03T08:13:38;22.30;99.90
23289;DHT22;11813;50.834;4.280;2022-09-03T08:16:05;22.50;99.90
23289;DHT22;11813;50.834;4.280;2022-09-03T08:18:33;22.50;99.90
23289;DHT22;11813;50.834;4.280;2022-09-03T08:21:13;22.60;99.90
23289;DHT22;11813;50.834;4.280;2022-09-03T08:23:41;22.60;99.90
23289;DHT22;11813;50.834;4.280;2022-09-03T08:26:08;22.60;99.90
23289;DHT22;11813;50.834;4.280;2022-09-03T08:28:34;22.60;99.90
23289;DHT22;11813;50.834;4.280;2022-09-03T08:33:38;22.80;99.90
23289;DHT22;11813;50.834;4.280;2022-09-03T08:36:08;22.90;99.90
23289;DHT22;11813;50.834;4.280;2022-09-03T08:38:34;23.00;99.90
23289;DHT22;11813;50.834;4.280;2022-09-03T08:41:27;23.10;99.90
23289;DHT22;11813;50.834;4.280;2022-09-03T08:46:54;23.20;99.90
23289;DHT22;11813;50.834;4.280;2022-09-03T08:49:41;23.40;99.90
23289;DHT22;11813;50.834;4.280;2022-09-03T08:54:46;24.00;99.90
23289;DHT22;11813;50.834;4.280;2022-09-03T08:57:14;24.10;99.90
23289;DHT22;11813;50.834;4.280;2022-09-03T08:59:41;24.40;99.90
23289;DHT22;11813;50.834;4.280;2022-09-03T09:02:24;24.40;99.90
23289;DHT22;11813;50.834;4.280;2022-09-03T09:04:59;24.50;99.90
23289;DHT22;11813;50.834;4.280;2022-09-03T09:07:39;24.50;99.90
23289;DHT22;11813;50.834;4.280;2022-09-03T09:10:15;24.60;99.90
23289;DHT22;11813;50.834;4.280;2022-09-03T09:13:07;24.90;99.90
23289;DHT22;11813;50.834;4.280;2022-09-03T09:21:15;25.00;99.90
23289;DHT22;11813;50.834;4.280;2022-09-03T09:23:48;24.80;99.90
23289;DHT22;11813;50.834;4.280;2022-09-03T09:26:17;24.80;99.90
23289;DHT22;11813;50.834;4.280;2022-09-03T09:28:52;24.70;99.90
23289;DHT22;11813;50.834;4.280;2022-09-03T09:31:19;24.80;99.90
23289;DHT22;11813;50.834;4.280;2022-09-03T09:33:45;25.10;99.90
23289;DHT22;11813;50.834;4.280;2022-09-03T09:36:13;25.00;99.90
23289;DHT22;11813;50.834;4.280;2022-09-03T09:38:41;25.20;99.90
23289;DHT22;11813;50.834;4.280;2022-09-03T09:41:17;25.30;99.90
23289;DHT22;11813;50.834;4.280;2022-09-03T09:43:59;25.40;99.90
23289;DHT22;11813;50.834;4.280;2022-09-03T09:46:40;25.00;99.90
23289;DHT22;11813;50.834;4.280;2022-09-03T09:50:15;25.10;99.90
23289;DHT22;11813;50.834;4.280;2022-09-03T09:52:12;25.10;99.90
23289;DHT22;11813;50.834;4.280;2022-09-03T09:54:40;24.90;99.90
23289;DHT22;11813;50.834;4.280;2022-09-03T09:57:13;25.10;99.90
23289;DHT22;11813;50.834;4.280;2022-09-03T09:59:42;25.20;99.90
23289;DHT22;11813;50.834;4.280;2022-09-03T10:04:37;25.60;99.90
23289;DHT22;11813;50.834;4.280;2022-09-03T10:09:30;26.00;99.90
23289;DHT22;11813;50.834;4.280;2022-09-03T10:14:46;26.20;99.90
23289;DHT22;11813;50.834;4.280;2022-09-03T10:17:25;26.30;99.90
23289;DHT22;11813;50.834;4.280;2022-09-03T10:23:15;26.70;99.90
23289;DHT22;11813;50.834;4.280;2022-09-03T10:28:27;26.90;99.90
23289;DHT22;11813;50.834;4.280;2022-09-03T10:31:18;26.80;99.90
23289;DHT22;11813;50.834;4.280;2022-09-03T10:33:59;26.80;99.90
23289;DHT22;11813;50.834;4.280;2022-09-03T10:36:37;26.80;99.90
23289;DHT22;11813;50.834;4.280;2022-09-03T10:50:25;26.40;99.90
23289;DHT22;11813;50.834;4.280;2022-09-03T10:56:01;26.80;99.90
23289;DHT22;11813;50.834;4.280;2022-09-03T11:04:16;26.70;99.90
23289;DHT22;11813;50.834;4.280;2022-09-03T11:06:57;27.10;99.90
23289;DHT22;11813;50.834;4.280;2022-09-03T11:12:31;28.20;99.90
23289;DHT22;11813;50.834;4.280;2022-09-03T11:15:03;28.40;99.90
23289;DHT22;11813;50.834;4.280;2022-09-03T11:17:37;28.00;99.90
23289;DHT22;11813;50.834;4.280;2022-09-03T11:22:39;27.80;99.90
23289;DHT22;11813;50.834;4.280;2022-09-03T11:25:06;27.80;99.90
23289;DHT22;11813;50.834;4.280;2022-09-03T11:30:05;27.70;99.90
23289;DHT22;11813;50.834;4.280;2022-09-03T11:32:46;27.90;99.90
23289;DHT22;11813;50.834;4.280;2022-09-03T11:35:23;27.90;99.90
23289;DHT22;11813;50.834;4.280;2022-09-03T11:38:04;28.00;99.90
23289;DHT22;11813;50.834;4.280;2022-09-03T11:40:37;28.20;99.90
23289;DHT22;11813;50.834;4.280;2022-09-03T11:43:23;28.20;99.90
23289;DHT22;11813;50.834;4.280;2022-09-03T11:46:03;28.30;99.90
23289;DHT22;11813;50.834;4.280;2022-09-03T11:48:39;28.40;99.90
23289;DHT22;11813;50.834;4.280;2022-09-03T11:53:59;28.90;99.90
23289;DHT22;11813;50.834;4.280;2022-09-03T11:56:27;28.70;99.90
23289;DHT22;11813;50.834;4.280;2022-09-03T11:59:00;28.70;99.90
23289;DHT22;11813;50.834;4.280;2022-09-03T12:01:27;28.80;99.90
23289;DHT22;11813;50.834;4.280;2022-09-03T12:04:02;29.00;99.90
23289;DHT22;11813;50.834;4.280;2022-09-03T12:12:46;29.40;99.90
23289;DHT22;11813;50.834;4.280;2022-09-03T12:18:10;29.40;99.90
23289;DHT22;11813;50.834;4.280;2022-09-03T12:26:11;31.00;99.90
23289;DHT22;11813;50.834;4.280;2022-09-03T12:28:41;31.10;99.90
23289;DHT22;11813;50.834;4.280;2022-09-03T12:31:14;31.30;99.90
23289;DHT22;11813;50.834;4.280;2022-09-03T12:34:02;31.50;99.90
23289;DHT22;11813;50.834;4.280;2022-09-03T12:36:41;31.20;99.90
23289;DHT22;11813;50.834;4.280;2022-09-03T12:39:26;31.10;99.90
23289;DHT22;11813;50.834;4.280;2022-09-03T12:44:38;30.20;99.90
23289;DHT22;11813;50.834;4.280;2022-09-03T12:47:21;30.00;99.90
23289;DHT22;11813;50.834;4.280;2022-09-03T12:49:49;30.40;99.90
23289;DHT22;11813;50.834;4.280;2022-09-03T12:52:32;30.70;99.90
23289;DHT22;11813;50.834;4.280;2022-09-03T12:55:00;30.90;99.90
23289;DHT22;11813;50.834;4.280;2022-09-03T12:57:47;30.90;99.90
23289;DHT22;11813;50.834;4.280;2022-09-03T13:00:15;31.10;99.90
23289;DHT22;11813;50.834;4.280;2022-09-03T13:05:20;30.70;99.90
23289;DHT22;11813;50.834;4.280;2022-09-03T13:07:52;30.40;99.90
23289;DHT22;11813;50.834;4.280;2022-09-03T13:10:28;30.10;99.90
23289;DHT22;11813;50.834;4.280;2022-09-03T13:13:01;30.30;99.90
23289;DHT22;11813;50.834;4.280;2022-09-03T13:15:27;30.90;99.90
23289;DHT22;11813;50.834;4.280;2022-09-03T13:18:09;31.40;99.90
23289;DHT22;11813;50.834;4.280;2022-09-03T13:31:56;32.20;99.90
23289;DHT22;11813;50.834;4.280;2022-09-03T13:34:31;31.90;99.90
23289;DHT22;11813;50.834;4.280;2022-09-03T13:39:40;31.30;99.90
23289;DHT22;11813;50.834;4.280;2022-09-03T13:42:26;31.20;99.90
23289;DHT22;11813;50.834;4.280;2022-09-03T13:45:03;31.10;99.90
23289;DHT22;11813;50.834;4.280;2022-09-03T13:47:33;31.50;99.90
23289;DHT22;11813;50.834;4.280;2022-09-03T13:50:25;31.80;99.90
23289;DHT22;11813;50.834;4.280;2022-09-03T13:53:31;31.90;99.90
23289;DHT22;11813;50.834;4.280;2022-09-03T14:02:19;31.60;99.90
23289;DHT22;11813;50.834;4.280;2022-09-03T14:05:09;31.20;99.90
23289;DHT22;11813;50.834;4.280;2022-09-03T14:10:21;30.80;99.90
23289;DHT22;11813;50.834;4.280;2022-09-03T14:18:50;30.60;99.90
23289;DHT22;11813;50.834;4.280;2022-09-03T14:21:30;30.40;99.90
23289;DHT22;11813;50.834;4.280;2022-09-03T14:24:35;30.20;99.90
23289;DHT22;11813;50.834;4.280;2022-09-03T14:27:03;30.20;99.90
23289;DHT22;11813;50.834;4.280;2022-09-03T14:29:32;30.00;99.90
23289;DHT22;11813;50.834;4.280;2022-09-03T14:37:54;30.00;99.90
23289;DHT22;11813;50.834;4.280;2022-09-03T14:40:44;30.00;99.90
23289;DHT22;11813;50.834;4.280;2022-09-03T14:46:32;29.60;99.90
23289;DHT22;11813;50.834;4.280;2022-09-03T14:49:15;29.00;99.90
23289;DHT22;11813;50.834;4.280;2022-09-03T14:54:48;27.90;99.90
23289;DHT22;11813;50.834;4.280;2022-09-03T15:06:10;27.30;99.90
23289;DHT22;11813;50.834;4.280;2022-09-03T15:08:58;27.50;99.90
23289;DHT22;11813;50.834;4.280;2022-09-03T15:11:31;27.80;99.90
23289;DHT22;11813;50.834;4.280;2022-09-03T15:14:14;28.00;99.90
23289;DHT22;11813;50.834;4.280;2022-09-03T15:17:00;28.00;99.90
23289;DHT22;11813;50.834;4.280;2022-09-03T15:20:05;28.10;99.90
23289;DHT22;11813;50.834;4.280;2022-09-03T15:23:01;28.00;99.90
23289;DHT22;11813;50.834;4.280;2022-09-03T15:25:52;27.80;99.90
23289;DHT22;11813;50.834;4.280;2022-09-03T15:31:21;27.90;99.90
23289;DHT22;11813;50.834;4.280;2022-09-03T15:34:18;28.30;99.90
23289;DHT22;11813;50.834;4.280;2022-09-03T15:36:51;28.60;99.90
23289;DHT22;11813;50.834;4.280;2022-09-03T15:39:24;28.50;99.90
23289;DHT22;11813;50.834;4.280;2022-09-03T15:42:05;28.90;99.90
23289;DHT22;11813;50.834;4.280;2022-09-03T15:44:47;29.10;99.90
23289;DHT22;11813;50.834;4.280;2022-09-03T15:52:56;29.80;99.90
23289;DHT22;11813;50.834;4.280;2022-09-03T16:03:11;30.70;99.90
23289;DHT22;11813;50.834;4.280;2022-09-03T16:05:48;31.00;99.90
23289;DHT22;11813;50.834;4.280;2022-09-03T16:08:26;31.10;99.90
23289;DHT22;11813;50.834;4.280;2022-09-03T16:16:21;31.20;99.90
23289;DHT22;11813;50.834;4.280;2022-09-03T16:19:09;31.10;99.90
23289;DHT22;11813;50.834;4.280;2022-09-03T16:27:14;30.50;99.90
23289;DHT22;11813;50.834;4.280;2022-09-03T16:29:41;30.50;99.90
23289;DHT22;11813;50.834;4.280;2022-09-03T16:38:21;30.00;99.90
23289;DHT22;11813;50.834;4.280;2022-09-03T16:43:33;29.90;99.90
23289;DHT22;11813;50.834;4.280;2022-09-03T17:10:44;28.50;99.90
23289;DHT22;11813;50.834;4.280;2022-09-03T17:16:02;27.80;99.90
23289;DHT22;11813;50.834;4.280;2022-09-03T17:29:26;27.20;99.90
23289;DHT22;11813;50.834;4.280;2022-09-03T17:35:33;27.00;99.90
23289;DHT22;11813;50.834;4.280;2022-09-03T17:38:40;26.90;99.90
23289;DHT22;11813;50.834;4.280;2022-09-03T17:41:01;26.90;99.90
23289;DHT22;11813;50.834;4.280;2022-09-03T17:46:36;27.00;99.90
23289;DHT22;11813;50.834;4.280;2022-09-03T17:49:06;26.90;99.90
23289;DHT22;11813;50.834;4.280;2022-09-03T17:57:14;26.70;99.90
23289;DHT22;11813;50.834;4.280;2022-09-03T18:10:50;26.20;99.90
23289;DHT22;11813;50.834;4.280;2022-09-03T18:16:31;26.00;99.90
23289;DHT22;11813;50.834;4.280;2022-09-03T18:19:02;26.00;99.90
23289;DHT22;11813;50.834;4.280;2022-09-03T18:21:35;25.90;99.90
23289;DHT22;11813;50.834;4.280;2022-09-03T18:24:28;25.90;99.90
23289;DHT22;11813;50.834;4.280;2022-09-03T18:27:40;25.80;99.90
23289;DHT22;11813;50.834;4.280;2022-09-03T18:30:26;25.80;99.90
23289;DHT22;11813;50.834;4.280;2022-09-03T18:33:10;25.80;99.90
23289;DHT22;11813;50.834;4.280;2022-09-03T18:35:57;25.70;99.90
23289;DHT22;11813;50.834;4.280;2022-09-03T18:38:42;25.70;99.90
23289;DHT22;11813;50.834;4.280;2022-09-03T18:57:00;25.10;99.90
23289;DHT22;11813;50.834;4.280;2022-09-03T19:08:55;24.40;99.90
23289;DHT22;11813;50.834;4.280;2022-09-03T19:12:03;24.40;99.90
23289;DHT22;11813;50.834;4.280;2022-09-03T19:15:00;24.30;99.90
23289;DHT22;11813;50.834;4.280;2022-09-03T19:21:19;24.30;99.90
23289;DHT22;11813;50.834;4.280;2022-09-03T19:24:05;24.30;99.90
23289;DHT22;11813;50.834;4.280;2022-09-03T19:30:29;24.20;99.90
23289;DHT22;11813;50.834;4.280;2022-09-03T19:42:11;23.80;99.90
23289;DHT22;11813;50.834;4.280;2022-09-03T19:51:15;23.70;99.90
23289;DHT22;11813;50.834;4.280;2022-09-03T19:54:02;23.70;99.90
23289;DHT22;11813;50.834;4.280;2022-09-03T19:56:48;23.60;99.90
23289;DHT22;11813;50.834;4.280;2022-09-03T19:59:37;23.60;99.90
23289;DHT22;11813;50.834;4.280;2022-09-03T20:02:23;23.50;99.90
23289;DHT22;11813;50.834;4.280;2022-09-03T20:05:18;23.50;99.90
23289;DHT22;11813;50.834;4.280;2022-09-03T20:08:04;23.40;99.90
23289;DHT22;11813;50.834;4.280;2022-09-03T20:10:52;23.30;99.90
23289;DHT22;11813;50.834;4.280;2022-09-03T20:13:20;23.20;99.90
23289;DHT22;11813;50.834;4.280;2022-09-03T20:16:06;23.20;99.90
23289;DHT22;11813;50.834;4.280;2022-09-03T20:23:29;23.00;99.90
23289;DHT22;11813;50.834;4.280;2022-09-03T20:29:15;22.90;99.90
23289;DHT22;11813;50.834;4.280;2022-09-03T20:31:54;22.90;99.90
23289;DHT22;11813;50.834;4.280;2022-09-03T20:43:02;22.70;99.90
23289;DHT22;11813;50.834;4.280;2022-09-03T20:51:03;22.40;99.90
23289;DHT22;11813;50.834;4.280;2022-09-03T21:02:06;22.20;99.90
23289;DHT22;11813;50.834;4.280;2022-09-03T21:04:47;22.30;99.90
23289;DHT22;11813;50.834;4.280;2022-09-03T21:18:25;22.00;99.90
23289;DHT22;11813;50.834;4.280;2022-09-03T21:24:20;22.00;99.90
23289;DHT22;11813;50.834;4.280;2022-09-03T21:26:56;21.90;99.90
23289;DHT22;11813;50.834;4.280;2022-09-03T21:29:25;21.90;99.90
23289;DHT22;11813;50.834;4.280;2022-09-03T21:32:15;21.90;99.90
23289;DHT22;11813;50.834;4.280;2022-09-03T21:35:43;21.80;99.90
23289;DHT22;11813;50.834;4.280;2022-09-03T21:37:58;21.80;99.90
23289;DHT22;11813;50.834;4.280;2022-09-03T21:40:27;21.70;99.90
23289;DHT22;11813;50.834;4.280;2022-09-03T21:43:24;21.70;99.90
23289;DHT22;11813;50.834;4.280;2022-09-03T21:46:34;21.60;99.90
23289;DHT22;11813;50.834;4.280;2022-09-03T21:48:58;21.60;99.90
23289;DHT22;11813;50.834;4.280;2022-09-03T21:52:01;21.50;99.90
23289;DHT22;11813;50.834;4.280;2022-09-03T21:54:32;21.50;99.90
23289;DHT22;11813;50.834;4.280;2022-09-03T22:02:29;21.40;99.90
23289;DHT22;11813;50.834;4.280;2022-09-03T22:04:57;21.30;99.90
23289;DHT22;11813;50.834;4.280;2022-09-03T22:12:36;21.30;99.90
23289;DHT22;11813;50.834;4.280;2022-09-03T22:15:07;21.10;99.90
23289;DHT22;11813;50.834;4.280;2022-09-03T22:17:53;21.10;99.90
23289;DHT22;11813;50.834;4.280;2022-09-03T22:20:22;21.10;99.90
23289;DHT22;11813;50.834;4.280;2022-09-03T22:22:53;21.10;99.90
23289;DHT22;11813;50.834;4.280;2022-09-03T22:25:28;21.10;99.90
23289;DHT22;11813;50.834;4.280;2022-09-03T22:30:47;21.00;99.90
23289;DHT22;11813;50.834;4.280;2022-09-03T22:33:41;21.00;99.90
23289;DHT22;11813;50.834;4.280;2022-09-03T22:36:15;20.90;99.90
23289;DHT22;11813;50.834;4.280;2022-09-03T22:38:57;20.80;99.90
23289;DHT22;11813;50.834;4.280;2022-09-03T22:49:52;20.70;99.90
23289;DHT22;11813;50.834;4.280;2022-09-03T22:52:30;20.70;99.90